sensor_id;sensor_type;location;lat;lon;timestamp;pressure;altitude;pressure_sealevel;temperature;humidity
2785;BME280;57944;48.722;9.316;2023-04-20T00:01:09;98036.47;;;2.16;100.00
2785;BME280;57944;48.722;9.316;2023-04-20T00:03:39;98033.19;;;2.16;100.00
2785;BME280;57944;48.722;9.316;2023-04-20T00:06:10;98030.06;;;1.94;100.00
2785;BME280;57944;48.722;9.316;2023-04-20T00:08:41;98027.16;;;1.89;100.00
2785;BME280;57944;48.722;9.316;2023-04-20T00:11:12;98024.38;;;1.83;100.00
2785;BME280;57944;48.722;9.316;2023-04-20T00:13:42;98014.47;;;1.81;100.00
2785;BME280;57944;48.722;9.316;2023-04-20T00:16:15;98021.22;;;1.90;100.00
2785;BME280;57944;48.722;9.316;2023-04-20T00:18:45;98021.59;;;1.86;100.00
2785;BME280;57944;48.722;9.316;2023-04-20T00:21:16;98018.59;;;1.82;100.00
2785;BME280;57944;48.722;9.316;2023-04-20T00:23:48;98010.25;;;1.72;100.00
2785;BME280;57944;48.722;9.316;2023-04-20T00:26:18;98012.53;;;1.46;100.00
2785;BME280;57944;48.722;9.316;2023-04-20T00:28:52;98008.16;;;1.58;100.00
2785;BME280;57944;48.722;9.316;2023-04-20T00:31:29;98001.81;;;1.73;100.00
2785;BME280;57944;48.722;9.316;2023-04-20T00:34:00;98004.16;;;1.84;100.00
2785;BME280;57944;48.722;9.316;2023-04-20T00:36:30;97994.31;;;2.00;100.00
2785;BME280;57944;48.722;9.316;2023-04-20T00:39:00;97992.47;;;2.03;100.00
2785;BME280;57944;48.722;9.316;2023-04-20T00:41:32;97987.88;;;1.88;100.00
2785;BME280;57944;48.722;9.316;2023-04-20T00:44:02;97989.38;;;1.71;100.00
2785;BME280;57944;48.722;9.316;2023-04-20T00:46:35;97987.38;;;1.85;100.00
2785;BME280;57944;48.722;9.316;2023-04-20T00:49:06;97977.75;;;1.61;100.00
2785;BME280;57944;48.722;9.316;2023-04-20T00:51:36;97976.19;;;1.60;100.00
2785;BME280;57944;48.722;9.316;2023-04-20T00:54:07;97972.84;;;1.69;100.00
2785;BME280;57944;48.722;9.316;2023-04-20T00:56:37;97972.50;;;1.54;100.00
2785;BME280;57944;48.722;9.316;2023-04-20T00:59:08;97965.38;;;1.30;100.00
2785;BME280;57944;48.722;9.316;2023-04-20T01:01:41;97973.03;;;1.19;100.00
2785;BME280;57944;48.722;9.316;2023-04-20T01:04:13;97969.72;;;0.99;100.00
2785;BME280;57944;48.722;9.316;2023-04-20T01:06:45;97964.81;;;0.78;100.00
2785;BME280;57944;48.722;9.316;2023-04-20T01:09:15;97965.88;;;0.75;100.00
2785;BME280;57944;48.722;9.316;2023-04-20T01:11:46;97959.03;;;0.87;100.00
2785;BME280;57944;48.722;9.316;2023-04-20T01:14:16;97955.59;;;0.78;100.00
2785;BME280;57944;48.722;9.316;2023-04-20T01:16:49;97940.91;;;0.83;100.00
2785;BME280;57944;48.722;9.316;2023-04-20T01:19:19;97936.44;;;0.87;100.00
2785;BME280;57944;48.722;9.316;2023-04-20T01:21:50;97937.09;;;0.89;100.00
2785;BME280;57944;48.722;9.316;2023-04-20T01:24:23;97926.56;;;0.76;100.00
2785;BME280;57944;48.722;9.316;2023-04-20T01:26:53;97922.03;;;0.70;100.00
2785;BME280;57944;48.722;9.316;2023-04-20T01:29:23;97916.22;;;0.59;100.00
2785;BME280;57944;48.722;9.316;2023-04-20T01:31:53;97912.75;;;0.31;100.00
2785;BME280;57944;48.722;9.316;2023-04-20T01:34:23;97914.53;;;0.19;100.00
2785;BME280;57944;48.722;9.316;2023-04-20T01:36:54;97910.22;;;0.21;100.00
2785;BME280;57944;48.722;9.316;2023-04-20T01:39:27;97911.66;;;0.14;100.00
2785;BME280;57944;48.722;9.316;2023-04-20T01:41:57;97897.00;;;0.10;100.00
2785;BME280;57944;48.722;9.316;2023-04-20T01:44:27;97899.63;;;0.08;100.00
2785;BME280;57944;48.722;9.316;2023-04-20T01:46:58;97897.88;;;-0.01;100.00
2785;BME280;57944;48.722;9.316;2023-04-20T01:49:28;97893.28;;;0.14;100.00
2785;BME280;57944;48.722;9.316;2023-04-20T01:51:58;97891.56;;;-0.05;100.00
2785;BME280;57944;48.722;9.316;2023-04-20T01:54:31;97890.03;;;-0.17;100.00
2785;BME280;57944;48.722;9.316;2023-04-20T01:57:01;97885.19;;;-0.09;100.00
2785;BME280;57944;48.722;9.316;2023-04-20T01:59:31;97886.03;;;0.01;100.00
2785;BME280;57944;48.722;9.316;2023-04-20T02:02:01;97892.19;;;-0.03;100.00
2785;BME280;57944;48.722;9.316;2023-04-20T02:04:31;97884.28;;;-0.08;100.00
2785;BME280;57944;48.722;9.316;2023-04-20T02:07:01;97880.19;;;-0.09;100.00
2785;BME280;57944;48.722;9.316;2023-04-20T02:09:34;97880.59;;;-0.14;100.00
2785;BME280;57944;48.722;9.316;2023-04-20T02:12:04;97876.47;;;-0.15;100.00
2785;BME280;57944;48.722;9.316;2023-04-20T02:14:34;97880.59;;;-0.14;100.00
2785;BME280;57944;48.722;9.316;2023-04-20T02:17:08;97888.09;;;-0.14;100.00
2785;BME280;57944;48.722;9.316;2023-04-20T02:19:39;97885.72;;;-0.15;100.00
2785;BME280;57944;48.722;9.316;2023-04-20T02:22:09;97875.34;;;-0.32;100.00
2785;BME280;57944;48.722;9.316;2023-04-20T02:24:42;97879.94;;;-0.37;100.00
2785;BME280;57944;48.722;9.316;2023-04-20T02:27:13;97884.31;;;-0.39;100.00
2785;BME280;57944;48.722;9.316;2023-04-20T02:29:43;97875.16;;;-0.50;100.00
2785;BME280;57944;48.722;9.316;2023-04-20T02:32:13;97874.19;;;-0.58;100.00
2785;BME280;57944;48.722;9.316;2023-04-20T02:34:43;97872.31;;;-0.66;100.00
2785;BME280;57944;48.722;9.316;2023-04-20T02:37:13;97864.47;;;-0.73;100.00
2785;BME280;57944;48.722;9.316;2023-04-20T02:39:45;97870.81;;;-0.90;100.00
2785;BME280;57944;48.722;9.316;2023-04-20T02:42:16;97860.34;;;-0.83;100.00
2785;BME280;57944;48.722;9.316;2023-04-20T02:44:47;97860.63;;;-0.98;100.00
2785;BME280;57944;48.722;9.316;2023-04-20T02:47:18;97861.47;;;-0.97;100.00
2785;BME280;57944;48.722;9.316;2023-04-20T02:49:50;97862.94;;;-0.95;100.00
2785;BME280;57944;48.722;9.316;2023-04-20T02:52:20;97856.91;;;-1.03;100.00
2785;BME280;57944;48.722;9.316;2023-04-20T02:54:53;97862.84;;;-1.04;100.00
2785;BME280;57944;48.722;9.316;2023-04-20T02:57:23;97856.97;;;-1.15;100.00
2785;BME280;57944;48.722;9.316;2023-04-20T02:59:55;97858.63;;;-1.04;100.00
2785;BME280;57944;48.722;9.316;2023-04-20T03:02:36;97858.19;;;-1.09;100.00
2785;BME280;57944;48.722;9.316;2023-04-20T03:05:07;97848.56;;;-1.14;100.00
2785;BME280;57944;48.722;9.316;2023-04-20T03:07:42;97849.63;;;-1.16;100.00
2785;BME280;57944;48.722;9.316;2023-04-20T03:10:15;97852.47;;;-1.21;100.00
2785;BME280;57944;48.722;9.316;2023-04-20T03:12:54;97846.06;;;-1.14;100.00
2785;BME280;57944;48.722;9.316;2023-04-20T03:15:42;97839.06;;;-1.20;100.00
2785;BME280;57944;48.722;9.316;2023-04-20T03:18:27;97840.34;;;-1.25;100.00
2785;BME280;57944;48.722;9.316;2023-04-20T03:20:58;97837.50;;;-1.32;100.00
2785;BME280;57944;48.722;9.316;2023-04-20T03:23:30;97834.97;;;-1.21;100.00
2785;BME280;57944;48.722;9.316;2023-04-20T03:26:04;97825.63;;;-1.19;100.00
2785;BME280;57944;48.722;9.316;2023-04-20T03:28:42;97828.75;;;-1.26;100.00
2785;BME280;57944;48.722;9.316;2023-04-20T03:31:17;97824.22;;;-1.32;100.00
2785;BME280;57944;48.722;9.316;2023-04-20T03:33:48;97822.94;;;-1.27;100.00
2785;BME280;57944;48.722;9.316;2023-04-20T03:36:18;97824.53;;;-1.26;100.00
2785;BME280;57944;48.722;9.316;2023-04-20T03:38:48;97816.44;;;-1.18;100.00
2785;BME280;57944;48.722;9.316;2023-04-20T03:41:21;97816.78;;;-1.23;100.00
2785;BME280;57944;48.722;9.316;2023-04-20T03:43:51;97819.22;;;-1.32;100.00
2785;BME280;57944;48.722;9.316;2023-04-20T03:46:21;97813.63;;;-1.25;100.00
2785;BME280;57944;48.722;9.316;2023-04-20T03:48:52;97806.66;;;-1.21;100.00
2785;BME280;57944;48.722;9.316;2023-04-20T03:51:22;97806.84;;;-1.34;100.00
2785;BME280;57944;48.722;9.316;2023-04-20T03:53:52;97802.06;;;-1.37;100.00
2785;BME280;57944;48.722;9.316;2023-04-20T03:56:25;97803.13;;;-1.40;100.00
2785;BME280;57944;48.722;9.316;2023-04-20T03:58:55;97797.81;;;-1.46;100.00
2785;BME280;57944;48.722;9.316;2023-04-20T04:01:26;97798.97;;;-1.50;100.00
2785;BME280;57944;48.722;9.316;2023-04-20T04:03:57;97803.59;;;-1.46;100.00
2785;BME280;57944;48.722;9.316;2023-04-20T04:06:30;97799.78;;;-1.50;100.00
2785;BME280;57944;48.722;9.316;2023-04-20T04:09:00;97809.16;;;-1.42;100.00
2785;BME280;57944;48.722;9.316;2023-04-20T04:11:33;97813.78;;;-1.38;100.00
2785;BME280;57944;48.722;9.316;2023-04-20T04:14:03;97809.97;;;-1.42;100.00
2785;BME280;57944;48.722;9.316;2023-04-20T04:16:35;97807.13;;;-1.48;100.00
2785;BME280;57944;48.722;9.316;2023-04-20T04:19:05;97811.66;;;-1.42;100.00
2785;BME280;57944;48.722;9.316;2023-04-20T04:21:36;97811.88;;;-1.45;100.00
2785;BME280;57944;48.722;9.316;2023-04-20T04:24:07;97811.00;;;-1.44;100.00
2785;BME280;57944;48.722;9.316;2023-04-20T04:26:47;97812.56;;;-1.43;100.00
2785;BME280;57944;48.722;9.316;2023-04-20T04:29:18;97817.50;;;-1.32;100.00
2785;BME280;57944;48.722;9.316;2023-04-20T04:31:48;97813.00;;;-1.38;100.00
2785;BME280;57944;48.722;9.316;2023-04-20T04:34:18;97806.72;;;-1.12;100.00
2785;BME280;57944;48.722;9.316;2023-04-20T04:36:51;97816.25;;;-1.05;100.00
2785;BME280;57944;48.722;9.316;2023-04-20T04:39:30;97815.25;;;-0.93;100.00
2785;BME280;57944;48.722;9.316;2023-04-20T04:42:11;97821.22;;;-0.63;100.00
2785;BME280;57944;48.722;9.316;2023-04-20T04:44:42;97818.28;;;-0.69;100.00
2785;BME280;57944;48.722;9.316;2023-04-20T04:47:17;97816.03;;;-0.72;100.00
2785;BME280;57944;48.722;9.316;2023-04-20T04:49:48;97817.25;;;-0.66;100.00
2785;BME280;57944;48.722;9.316;2023-04-20T04:52:18;97812.34;;;-0.68;100.00
2785;BME280;57944;48.722;9.316;2023-04-20T04:54:48;97808.13;;;-0.67;100.00
2785;BME280;57944;48.722;9.316;2023-04-20T04:57:21;97808.31;;;-0.59;100.00
2785;BME280;57944;48.722;9.316;2023-04-20T04:59:52;97809.59;;;-0.64;100.00
2785;BME280;57944;48.722;9.316;2023-04-20T05:02:22;97806.78;;;-0.50;100.00
2785;BME280;57944;48.722;9.316;2023-04-20T05:04:53;97806.81;;;-0.31;100.00
2785;BME280;57944;48.722;9.316;2023-04-20T05:07:23;97812.66;;;-0.20;100.00
2785;BME280;57944;48.722;9.316;2023-04-20T05:09:53;97813.78;;;0.06;100.00
2785;BME280;57944;48.722;9.316;2023-04-20T05:12:26;97815.66;;;0.43;100.00
2785;BME280;57944;48.722;9.316;2023-04-20T05:14:56;97822.50;;;0.80;100.00
2785;BME280;57944;48.722;9.316;2023-04-20T05:17:26;97816.97;;;1.43;100.00
2785;BME280;57944;48.722;9.316;2023-04-20T05:19:56;97817.28;;;1.85;100.00
2785;BME280;57944;48.722;9.316;2023-04-20T05:22:26;97826.75;;;2.55;100.00
2785;BME280;57944;48.722;9.316;2023-04-20T05:24:56;97822.47;;;3.17;100.00
2785;BME280;57944;48.722;9.316;2023-04-20T05:27:29;97818.06;;;3.79;100.00
2785;BME280;57944;48.722;9.316;2023-04-20T05:29:59;97818.19;;;4.45;100.00
2785;BME280;57944;48.722;9.316;2023-04-20T05:32:46;97819.44;;;4.90;100.00
2785;BME280;57944;48.722;9.316;2023-04-20T05:35:18;97821.00;;;5.15;100.00
2785;BME280;57944;48.722;9.316;2023-04-20T05:37:48;97824.06;;;5.42;100.00
2785;BME280;57944;48.722;9.316;2023-04-20T05:40:18;97822.50;;;5.80;100.00
2785;BME280;57944;48.722;9.316;2023-04-20T05:42:51;97819.41;;;6.33;100.00
2785;BME280;57944;48.722;9.316;2023-04-20T05:45:21;97819.81;;;6.82;100.00
2785;BME280;57944;48.722;9.316;2023-04-20T05:47:51;97826.81;;;7.33;100.00
2785;BME280;57944;48.722;9.316;2023-04-20T05:50:22;97829.91;;;7.94;100.00
2785;BME280;57944;48.722;9.316;2023-04-20T05:52:52;97823.25;;;8.51;100.00
2785;BME280;57944;48.722;9.316;2023-04-20T05:55:23;97820.28;;;8.97;100.00
2785;BME280;57944;48.722;9.316;2023-04-20T05:57:55;97824.25;;;9.82;100.00
2785;BME280;57944;48.722;9.316;2023-04-20T06:00:25;97832.91;;;9.95;100.00
2785;BME280;57944;48.722;9.316;2023-04-20T06:02:55;97833.31;;;9.98;100.00
2785;BME280;57944;48.722;9.316;2023-04-20T06:05:25;97838.13;;;10.41;99.18
2785;BME280;57944;48.722;9.316;2023-04-20T06:07:55;97837.38;;;10.61;87.09
2785;BME280;57944;48.722;9.316;2023-04-20T06:10:25;97832.69;;;10.71;85.99
2785;BME280;57944;48.722;9.316;2023-04-20T06:13:00;97821.50;;;10.72;75.87
2785;BME280;57944;48.722;9.316;2023-04-20T06:15:30;97829.94;;;10.92;76.42
2785;BME280;57944;48.722;9.316;2023-04-20T06:18:00;97823.19;;;11.25;64.97
2785;BME280;57944;48.722;9.316;2023-04-20T06:20:31;97826.63;;;11.70;60.63
2785;BME280;57944;48.722;9.316;2023-04-20T06:23:00;97817.22;;;12.41;57.21
2785;BME280;57944;48.722;9.316;2023-04-20T06:25:30;97817.38;;;12.96;57.69
2785;BME280;57944;48.722;9.316;2023-04-20T06:28:03;97809.44;;;13.59;53.51
2785;BME280;57944;48.722;9.316;2023-04-20T06:30:33;97803.78;;;13.57;51.50
2785;BME280;57944;48.722;9.316;2023-04-20T06:33:03;97806.03;;;13.29;50.92
2785;BME280;57944;48.722;9.316;2023-04-20T06:35:36;97811.63;;;13.01;52.67
2785;BME280;57944;48.722;9.316;2023-04-20T06:38:05;97812.03;;;12.54;52.21
2785;BME280;57944;48.722;9.316;2023-04-20T06:40:36;97810.06;;;13.43;51.29
2785;BME280;57944;48.722;9.316;2023-04-20T06:43:08;97810.47;;;14.61;47.94
2785;BME280;57944;48.722;9.316;2023-04-20T06:45:38;97809.38;;;14.80;46.46
2785;BME280;57944;48.722;9.316;2023-04-20T06:48:08;97803.53;;;15.20;45.85
2785;BME280;57944;48.722;9.316;2023-04-20T06:50:57;97809.16;;;15.69;44.81
2785;BME280;57944;48.722;9.316;2023-04-20T06:53:27;97807.47;;;14.87;46.49
2785;BME280;57944;48.722;9.316;2023-04-20T06:55:58;97803.84;;;14.41;47.22
2785;BME280;57944;48.722;9.316;2023-04-20T06:58:30;97803.63;;;13.34;48.60
2785;BME280;57944;48.722;9.316;2023-04-20T07:01:00;97794.88;;;12.29;51.06
2785;BME280;57944;48.722;9.316;2023-04-20T07:03:30;97798.84;;;11.35;53.67
2785;BME280;57944;48.722;9.316;2023-04-20T07:06:01;97786.72;;;10.11;58.61
2785;BME280;57944;48.722;9.316;2023-04-20T07:08:31;97789.47;;;10.03;63.06
2785;BME280;57944;48.722;9.316;2023-04-20T07:11:01;97782.41;;;9.98;62.94
2785;BME280;57944;48.722;9.316;2023-04-20T07:13:33;97782.88;;;10.28;63.40
2785;BME280;57944;48.722;9.316;2023-04-20T07:16:04;97783.66;;;10.36;63.42
2785;BME280;57944;48.722;9.316;2023-04-20T07:18:34;97782.88;;;10.55;63.67
2785;BME280;57944;48.722;9.316;2023-04-20T07:21:04;97793.63;;;10.90;61.06
2785;BME280;57944;48.722;9.316;2023-04-20T07:23:34;97792.25;;;11.14;59.25
2785;BME280;57944;48.722;9.316;2023-04-20T07:26:04;97791.00;;;11.30;60.43
2785;BME280;57944;48.722;9.316;2023-04-20T07:28:37;97780.34;;;10.48;59.34
2785;BME280;57944;48.722;9.316;2023-04-20T07:31:07;97779.63;;;9.93;61.04
2785;BME280;57944;48.722;9.316;2023-04-20T07:33:37;97784.31;;;9.83;66.41
2785;BME280;57944;48.722;9.316;2023-04-20T07:36:07;97785.41;;;9.19;69.55
2785;BME280;57944;48.722;9.316;2023-04-20T07:38:37;97785.19;;;9.14;74.89
2785;BME280;57944;48.722;9.316;2023-04-20T07:41:08;97785.59;;;9.17;70.75
2785;BME280;57944;48.722;9.316;2023-04-20T07:43:41;97779.31;;;9.13;73.37
2785;BME280;57944;48.722;9.316;2023-04-20T07:46:18;97778.72;;;9.11;74.80
2785;BME280;57944;48.722;9.316;2023-04-20T07:48:48;97785.16;;;9.07;75.41
2785;BME280;57944;48.722;9.316;2023-04-20T07:51:18;97785.13;;;9.01;74.47
2785;BME280;57944;48.722;9.316;2023-04-20T07:53:48;97782.88;;;8.91;77.42
2785;BME280;57944;48.722;9.316;2023-04-20T07:56:18;97778.97;;;8.88;81.53
2785;BME280;57944;48.722;9.316;2023-04-20T07:58:51;97780.19;;;8.92;78.15
2785;BME280;57944;48.722;9.316;2023-04-20T08:01:22;97784.16;;;8.73;79.24
2785;BME280;57944;48.722;9.316;2023-04-20T08:03:52;97788.72;;;8.57;81.48
2785;BME280;57944;48.722;9.316;2023-04-20T08:06:23;97774.38;;;8.27;82.75
2785;BME280;57944;48.722;9.316;2023-04-20T08:08:54;97777.31;;;8.10;84.25
2785;BME280;57944;48.722;9.316;2023-04-20T08:11:24;97778.47;;;8.07;85.44
2785;BME280;57944;48.722;9.316;2023-04-20T08:13:56;97779.03;;;8.02;89.44
2785;BME280;57944;48.722;9.316;2023-04-20T08:16:26;97781.91;;;7.99;90.37
2785;BME280;57944;48.722;9.316;2023-04-20T08:18:56;97770.34;;;7.75;99.41
2785;BME280;57944;48.722;9.316;2023-04-20T08:21:27;97775.28;;;7.62;100.00
2785;BME280;57944;48.722;9.316;2023-04-20T08:23:57;97775.34;;;7.69;100.00
2785;BME280;57944;48.722;9.316;2023-04-20T08:26:27;97777.81;;;7.62;100.00
2785;BME280;57944;48.722;9.316;2023-04-20T08:29:01;97780.34;;;7.62;100.00
2785;BME280;57944;48.722;9.316;2023-04-20T08:31:31;97773.34;;;7.64;100.00
2785;BME280;57944;48.722;9.316;2023-04-20T08:34:01;97777.91;;;7.54;100.00
2785;BME280;57944;48.722;9.316;2023-04-20T08:36:31;97777.38;;;7.44;100.00
2785;BME280;57944;48.722;9.316;2023-04-20T08:39:06;97781.25;;;7.39;100.00
2785;BME280;57944;48.722;9.316;2023-04-20T08:41:37;97773.91;;;7.15;100.00
2785;BME280;57944;48.722;9.316;2023-04-20T08:44:10;97777.91;;;7.24;100.00
2785;BME280;57944;48.722;9.316;2023-04-20T08:46:41;97772.16;;;7.45;100.00
2785;BME280;57944;48.722;9.316;2023-04-20T08:49:16;97776.34;;;7.23;100.00
2785;BME280;57944;48.722;9.316;2023-04-20T08:51:47;97764.81;;;7.06;100.00
2785;BME280;57944;48.722;9.316;2023-04-20T08:54:17;97765.50;;;6.85;100.00
2785;BME280;57944;48.722;9.316;2023-04-20T08:56:50;97767.38;;;6.68;100.00
2785;BME280;57944;48.722;9.316;2023-04-20T08:59:22;97768.13;;;6.91;100.00
2785;BME280;57944;48.722;9.316;2023-04-20T09:01:53;97769.34;;;6.96;100.00
2785;BME280;57944;48.722;9.316;2023-04-20T09:04:24;97772.84;;;6.94;100.00
2785;BME280;57944;48.722;9.316;2023-04-20T09:06:55;97774.34;;;7.04;100.00
2785;BME280;57944;48.722;9.316;2023-04-20T09:09:25;97768.91;;;7.07;100.00
2785;BME280;57944;48.722;9.316;2023-04-20T09:12:02;97764.53;;;7.15;100.00
2785;BME280;57944;48.722;9.316;2023-04-20T09:14:44;97755.47;;;7.21;100.00
2785;BME280;57944;48.722;9.316;2023-04-20T09:17:15;97758.34;;;7.33;100.00
2785;BME280;57944;48.722;9.316;2023-04-20T09:19:51;97754.03;;;7.48;100.00
2785;BME280;57944;48.722;9.316;2023-04-20T09:22:28;97753.78;;;7.79;100.00
2785;BME280;57944;48.722;9.316;2023-04-20T09:24:59;97749.47;;;7.95;100.00
2785;BME280;57944;48.722;9.316;2023-04-20T09:27:29;97749.28;;;7.96;100.00
2785;BME280;57944;48.722;9.316;2023-04-20T09:30:02;97746.94;;;8.16;100.00
2785;BME280;57944;48.722;9.316;2023-04-20T09:32:32;97751.81;;;8.18;100.00
2785;BME280;57944;48.722;9.316;2023-04-20T09:35:03;97758.41;;;8.12;100.00
2785;BME280;57944;48.722;9.316;2023-04-20T09:37:33;97758.41;;;8.12;100.00
2785;BME280;57944;48.722;9.316;2023-04-20T09:40:05;97753.59;;;8.17;100.00
2785;BME280;57944;48.722;9.316;2023-04-20T09:42:37;97755.50;;;7.94;100.00
2785;BME280;57944;48.722;9.316;2023-04-20T09:45:12;97751.94;;;7.88;100.00
2785;BME280;57944;48.722;9.316;2023-04-20T09:47:43;97756.72;;;7.61;100.00
2785;BME280;57944;48.722;9.316;2023-04-20T09:50:12;97749.75;;;7.49;100.00
2785;BME280;57944;48.722;9.316;2023-04-20T09:52:55;97746.47;;;7.70;100.00
2785;BME280;57944;48.722;9.316;2023-04-20T09:55:26;97752.13;;;7.87;100.00
2785;BME280;57944;48.722;9.316;2023-04-20T09:57:56;97751.97;;;7.73;100.00
2785;BME280;57944;48.722;9.316;2023-04-20T10:00:29;97750.31;;;7.29;100.00
2785;BME280;57944;48.722;9.316;2023-04-20T10:02:59;97756.94;;;7.15;100.00
2785;BME280;57944;48.722;9.316;2023-04-20T10:05:33;97753.03;;;7.28;100.00
2785;BME280;57944;48.722;9.316;2023-04-20T10:08:06;97756.69;;;7.25;100.00
2785;BME280;57944;48.722;9.316;2023-04-20T10:10:46;97759.22;;;7.25;100.00
2785;BME280;57944;48.722;9.316;2023-04-20T10:13:17;97753.91;;;7.05;100.00
2785;BME280;57944;48.722;9.316;2023-04-20T10:15:51;97755.63;;;7.05;100.00
2785;BME280;57944;48.722;9.316;2023-04-20T10:18:23;97744.38;;;6.92;100.00
2785;BME280;57944;48.722;9.316;2023-04-20T10:21:03;97757.31;;;6.98;100.00
2785;BME280;57944;48.722;9.316;2023-04-20T10:23:46;97744.13;;;7.17;100.00
2785;BME280;57944;48.722;9.316;2023-04-20T10:26:16;97745.84;;;7.31;100.00
2785;BME280;57944;48.722;9.316;2023-04-20T10:28:46;97738.41;;;7.45;100.00
2785;BME280;57944;48.722;9.316;2023-04-20T10:31:18;97739.25;;;7.52;100.00
2785;BME280;57944;48.722;9.316;2023-04-20T10:33:52;97734.25;;;7.22;100.00
2785;BME280;57944;48.722;9.316;2023-04-20T10:36:25;97736.34;;;7.04;100.00
2785;BME280;57944;48.722;9.316;2023-04-20T10:38:56;97730.84;;;6.85;100.00
2785;BME280;57944;48.722;9.316;2023-04-20T10:41:27;97731.38;;;7.10;100.00
2785;BME280;57944;48.722;9.316;2023-04-20T10:44:06;97712.91;;;7.31;100.00
2785;BME280;57944;48.722;9.316;2023-04-20T10:46:39;97709.19;;;7.49;100.00
2785;BME280;57944;48.722;9.316;2023-04-20T10:49:09;97710.78;;;7.50;100.00
2785;BME280;57944;48.722;9.316;2023-04-20T10:51:45;97711.53;;;7.87;100.00
2785;BME280;57944;48.722;9.316;2023-04-20T10:54:16;97706.25;;;8.10;100.00
2785;BME280;57944;48.722;9.316;2023-04-20T10:56:48;97700.56;;;8.29;100.00
2785;BME280;57944;48.722;9.316;2023-04-20T10:59:20;97692.44;;;8.68;100.00
2785;BME280;57944;48.722;9.316;2023-04-20T11:01:53;97686.53;;;8.89;100.00
2785;BME280;57944;48.722;9.316;2023-04-20T11:04:29;97678.28;;;8.87;100.00
2785;BME280;57944;48.722;9.316;2023-04-20T11:07:04;97679.53;;;8.63;100.00
2785;BME280;57944;48.722;9.316;2023-04-20T11:09:35;97674.75;;;8.82;100.00
2785;BME280;57944;48.722;9.316;2023-04-20T11:12:07;97671.75;;;9.06;100.00
2785;BME280;57944;48.722;9.316;2023-04-20T11:14:49;97663.63;;;9.31;100.00
2785;BME280;57944;48.722;9.316;2023-04-20T11:17:22;97658.19;;;9.47;100.00
2785;BME280;57944;48.722;9.316;2023-04-20T11:20:03;97647.66;;;9.77;100.00
2785;BME280;57944;48.722;9.316;2023-04-20T11:22:36;97651.13;;;10.69;100.00
2785;BME280;57944;48.722;9.316;2023-04-20T11:25:08;97647.41;;;11.16;100.00
2785;BME280;57944;48.722;9.316;2023-04-20T11:27:39;97649.72;;;11.63;100.00
2785;BME280;57944;48.722;9.316;2023-04-20T11:30:09;97652.19;;;12.51;100.00
2785;BME280;57944;48.722;9.316;2023-04-20T11:32:51;97649.47;;;12.03;95.49
2785;BME280;57944;48.722;9.316;2023-04-20T11:35:22;97651.94;;;11.53;99.38
2785;BME280;57944;48.722;9.316;2023-04-20T11:37:52;97657.66;;;11.10;100.00
2785;BME280;57944;48.722;9.316;2023-04-20T11:40:23;97650.97;;;11.15;100.00
2785;BME280;57944;48.722;9.316;2023-04-20T11:42:56;97658.97;;;11.26;100.00
2785;BME280;57944;48.722;9.316;2023-04-20T11:45:26;97645.34;;;11.38;100.00
2785;BME280;57944;48.722;9.316;2023-04-20T11:48:00;97654.78;;;11.38;99.00
2785;BME280;57944;48.722;9.316;2023-04-20T11:50:31;97659.28;;;10.91;100.00
2785;BME280;57944;48.722;9.316;2023-04-20T11:53:01;97665.69;;;10.35;100.00
2785;BME280;57944;48.722;9.316;2023-04-20T11:55:32;97658.25;;;9.87;100.00
2785;BME280;57944;48.722;9.316;2023-04-20T11:58:02;97658.59;;;9.71;100.00
2785;BME280;57944;48.722;9.316;2023-04-20T12:00:33;97661.94;;;9.91;100.00
2785;BME280;57944;48.722;9.316;2023-04-20T12:03:06;97665.69;;;9.95;100.00
2785;BME280;57944;48.722;9.316;2023-04-20T12:05:37;97671.56;;;10.16;100.00
2785;BME280;57944;48.722;9.316;2023-04-20T12:08:09;97668.81;;;10.44;100.00
2785;BME280;57944;48.722;9.316;2023-04-20T12:10:39;97677.66;;;10.35;100.00
2785;BME280;57944;48.722;9.316;2023-04-20T12:13:10;97670.38;;;10.25;100.00
2785;BME280;57944;48.722;9.316;2023-04-20T12:15:41;97664.88;;;9.75;100.00
2785;BME280;57944;48.722;9.316;2023-04-20T12:18:14;97664.28;;;9.86;100.00
2785;BME280;57944;48.722;9.316;2023-04-20T12:20:45;97668.41;;;9.74;100.00
2785;BME280;57944;48.722;9.316;2023-04-20T12:23:16;97665.63;;;9.55;100.00
2785;BME280;57944;48.722;9.316;2023-04-20T12:25:46;97664.75;;;9.22;100.00
2785;BME280;57944;48.722;9.316;2023-04-20T12:28:17;97663.91;;;9.01;100.00
2785;BME280;57944;48.722;9.316;2023-04-20T12:30:47;97660.38;;;9.02;100.00
2785;BME280;57944;48.722;9.316;2023-04-20T12:33:20;97660.09;;;9.25;100.00
2785;BME280;57944;48.722;9.316;2023-04-20T12:35:50;97661.03;;;9.17;100.00
2785;BME280;57944;48.722;9.316;2023-04-20T12:38:20;97663.19;;;9.21;100.00
2785;BME280;57944;48.722;9.316;2023-04-20T12:40:51;97661.81;;;9.25;100.00
2785;BME280;57944;48.722;9.316;2023-04-20T12:43:21;97655.81;;;9.39;100.00
2785;BME280;57944;48.722;9.316;2023-04-20T12:45:52;97644.19;;;9.10;100.00
2785;BME280;57944;48.722;9.316;2023-04-20T12:48:24;97644.72;;;9.05;100.00
2785;BME280;57944;48.722;9.316;2023-04-20T12:50:55;97649.81;;;8.99;100.00
2785;BME280;57944;48.722;9.316;2023-04-20T12:53:25;97645.94;;;9.03;100.00
2785;BME280;57944;48.722;9.316;2023-04-20T12:55:55;97642.38;;;8.97;100.00
2785;BME280;57944;48.722;9.316;2023-04-20T12:58:27;97638.84;;;8.91;100.00
2785;BME280;57944;48.722;9.316;2023-04-20T13:00:58;97644.47;;;8.52;100.00
2785;BME280;57944;48.722;9.316;2023-04-20T13:03:31;97644.91;;;8.56;100.00
2785;BME280;57944;48.722;9.316;2023-04-20T13:06:02;97633.53;;;8.52;100.00
2785;BME280;57944;48.722;9.316;2023-04-20T13:08:32;97638.00;;;8.21;100.00
2785;BME280;57944;48.722;9.316;2023-04-20T13:11:03;97629.06;;;8.25;100.00
2785;BME280;57944;48.722;9.316;2023-04-20T13:13:33;97637.69;;;8.03;100.00
2785;BME280;57944;48.722;9.316;2023-04-20T13:16:04;97637.69;;;8.03;100.00
2785;BME280;57944;48.722;9.316;2023-04-20T13:18:37;97634.56;;;8.01;100.00
2785;BME280;57944;48.722;9.316;2023-04-20T13:21:07;97639.16;;;7.91;100.00
2785;BME280;57944;48.722;9.316;2023-04-20T13:23:38;97633.81;;;8.07;100.00
2785;BME280;57944;48.722;9.316;2023-04-20T13:26:08;97640.47;;;8.08;100.00
2785;BME280;57944;48.722;9.316;2023-04-20T13:28:39;97635.81;;;8.12;100.00
2785;BME280;57944;48.722;9.316;2023-04-20T13:31:09;97639.78;;;7.99;100.00